Time;durP1;ratioP1;P1;durP2;ratioP2;P2;SDS_P1;SDS_P2;PMS_P1;PMS_P2;Temp;Humidity;BMP_temperature;BMP_pressure;BME280_temperature;BME280_humidity;BME280_pressure;Samples;Min_cycle;Max_cycle;Signal;HPM_P1;HPM_P2
2021/03/02 00:02:30;;;;;;;14.55;10.93;;;;;;;1.79;100.00;102245.19;9989936;29;20134;-72
2021/03/02 00:07:35;;;;;;;20.05;14.35;;;;;;;1.65;100.00;102264.88;9973858;29;20492;-73
2021/03/02 00:12:40;;;;;;;26.15;16.05;;;;;;;1.88;100.00;102293.88;9974404;29;20553;-72
2021/03/02 00:17:55;;;;;;;20.63;14.48;;;;;;;2.06;100.00;102322.78;9973857;29;20081;-73
2021/03/02 00:23:03;;;;;;;19.13;14.25;;;;;;;2.20;100.00;102344.69;9972018;29;20062;-73
2021/03/02 00:28:08;;;;;;;22.42;15.35;;;;;;;2.27;100.00;102358.69;9989759;29;20100;-72
2021/03/02 00:33:12;;;;;;;20.48;16.23;;;;;;;2.26;100.00;102359.53;9990087;29;20442;-72
2021/03/02 00:38:15;;;;;;;21.48;15.85;;;;;;;2.30;100.00;102363.94;9989006;29;20058;-72
2021/03/02 00:43:18;;;;;;;20.05;14.70;;;;;;;2.36;100.00;102381.38;9988531;29;20066;-72
2021/03/02 00:48:24;;;;;;;19.03;14.30;;;;;;;2.29;100.00;102370.00;9972997;29;20096;-72
2021/03/02 00:53:28;;;;;;;17.55;14.38;;;;;;;2.27;100.00;102372.56;9958740;29;20054;-73
2021/03/02 00:58:29;;;;;;;16.17;12.60;;;;;;;2.40;100.00;102386.66;9957377;29;20111;-72
2021/03/02 01:03:31;;;;;;;16.85;12.18;;;;;;;2.34;100.00;102375.28;9972568;29;20054;-73
2021/03/02 01:08:36;;;;;;;17.10;12.50;;;;;;;2.41;100.00;102374.53;9972757;29;20056;-72
2021/03/02 01:13:42;;;;;;;16.65;12.23;;;;;;;2.38;100.00;102370.16;9973274;29;20057;-73
2021/03/02 01:18:45;;;;;;;14.63;12.02;;;;;;;2.32;100.00;102357.06;9971995;29;20050;-72
2021/03/02 01:23:50;;;;;;;14.10;11.20;;;;;;;2.25;100.00;102337.88;9972418;29;20131;-73
2021/03/02 01:28:53;;;;;;;11.90;10.00;;;;;;;2.38;100.00;102351.06;9971260;29;20054;-72
2021/03/02 01:33:56;;;;;;;14.05;10.20;;;;;;;2.39;100.00;102339.81;9970779;29;20058;-73
2021/03/02 01:38:59;;;;;;;13.50;10.90;;;;;;;2.32;100.00;102320.66;9970956;29;20054;-72
2021/03/02 01:44:01;;;;;;;14.00;10.38;;;;;;;2.33;100.00;102325.00;9971695;29;20077;-72
2021/03/02 01:49:04;;;;;;;15.00;10.75;;;;;;;2.22;100.00;102301.41;9955790;29;20380;-72
2021/03/02 01:54:06;;;;;;;13.32;9.75;;;;;;;2.18;100.00;102302.19;9971214;29;20061;-73
2021/03/02 01:59:08;;;;;;;13.30;10.00;;;;;;;1.98;100.00;102263.72;9970073;29;20065;-73
2021/03/02 02:04:29;;;;;;;12.55;10.63;;;;;;;1.27;100.00;102212.19;9985991;29;20063;-72
2021/03/02 02:10:28;;;;;;;11.73;9.98;;;;;;;1.36;100.00;102250.44;9983842;29;20385;-72
2021/03/02 02:15:35;;;;;;;11.43;9.68;;;;;;;1.43;100.00;102250.56;9946259;29;20054;-72
2021/03/02 02:21:14;;;;;;;13.88;10.13;;;;;;;1.37;100.00;102253.06;9985143;29;20059;-73
2021/03/02 02:26:41;;;;;;;12.63;9.70;;;;;;;1.28;100.00;102255.47;9970087;29;20054;-73
2021/03/02 02:31:45;;;;;;;14.52;10.35;;;;;;;1.22;100.00;102254.47;9984033;29;20050;-72
2021/03/02 02:36:54;;;;;;;12.50;9.77;;;;;;;1.34;100.00;102268.56;9969181;29;20062;-72
2021/03/02 02:41:57;;;;;;;12.48;9.90;;;;;;;1.27;100.00;102265.81;9985637;29;20496;-73
2021/03/02 02:47:03;;;;;;;13.25;10.48;;;;;;;1.21;100.00;102260.50;9969342;29;20137;-72
2021/03/02 02:52:06;;;;;;;13.65;11.15;;;;;;;1.24;100.00;102263.19;9984268;29;20137;-73
2021/03/02 02:57:16;;;;;;;13.68;10.50;;;;;;;1.28;100.00;102273.66;9954392;29;20157;-72
2021/03/02 03:02:29;;;;;;;11.70;9.55;;;;;;;1.24;100.00;102276.16;9984317;29;20149;-73
2021/03/02 03:07:40;;;;;;;14.73;10.98;;;;;;;1.33;100.00;102282.41;9983355;29;20114;-72
2021/03/02 03:13:01;;;;;;;13.55;9.75;;;;;;;1.20;100.00;102271.72;9968999;29;20145;-72
2021/03/02 03:18:10;;;;;;;12.93;9.70;;;;;;;1.10;100.00;102268.94;9983209;29;20505;-72
2021/03/02 03:23:16;;;;;;;11.27;8.75;;;;;;;1.10;100.00;102273.25;9984708;29;20062;-73
2021/03/02 03:28:21;;;;;;;12.52;9.85;;;;;;;1.18;100.00;102287.28;9974560;29;20115;-72
2021/03/02 03:33:25;;;;;;;13.35;10.20;;;;;;;0.98;100.00;102268.69;9961671;29;20146;-72
2021/03/02 03:38:36;;;;;;;14.98;10.48;;;;;;;1.09;100.00;102305.25;9976603;29;20054;-73
2021/03/02 03:43:41;;;;;;;12.43;10.00;;;;;;;1.19;100.00;102312.38;9975414;29;20065;-73
2021/03/02 03:48:43;;;;;;;13.93;9.75;;;;;;;1.12;100.00;102302.72;9960243;29;20130;-72
2021/03/02 03:53:46;;;;;;;13.50;10.55;;;;;;;0.99;100.00;102287.75;9975137;29;20058;-72
2021/03/02 03:58:49;;;;;;;15.15;10.48;;;;;;;0.87;100.00;102274.50;9975235;29;20068;-72
2021/03/02 04:03:52;;;;;;;15.10;10.32;;;;;;;0.85;100.00;102274.44;9974579;29;20093;-72
2021/03/02 04:08:58;;;;;;;16.17;10.65;;;;;;;0.66;100.00;102278.38;9974372;29;20054;-73
2021/03/02 04:14:00;;;;;;;15.10;11.13;;;;;;;1.00;100.00;102318.91;9974591;29;20546;-73
2021/03/02 04:19:06;;;;;;;13.27;9.50;;;;;;;1.07;100.00;102336.38;9973734;29;20062;-72
2021/03/02 04:24:10;;;;;;;13.70;9.30;;;;;;;1.06;100.00;102342.41;9992018;29;20058;-72
2021/03/02 04:29:17;;;;;;;13.93;10.38;;;;;;;1.04;100.00;102340.59;10011158;29;20054;-72
2021/03/02 04:34:21;;;;;;;15.35;11.70;;;;;;;1.11;100.00;102355.47;10011837;29;20077;-72
2021/03/02 04:39:24;;;;;;;17.15;10.70;;;;;;;0.94;100.00;102355.09;10010340;29;20511;-72
2021/03/02 04:44:26;;;;;;;14.00;10.60;;;;;;;0.92;100.00;102355.91;10026329;29;20064;-72
2021/03/02 04:49:31;;;;;;;14.63;10.77;;;;;;;1.04;100.00;102374.34;10027017;29;20049;-72
2021/03/02 04:54:34;;;;;;;16.83;11.15;;;;;;;0.75;100.00;102355.53;9990021;29;20058;-73
2021/03/02 04:59:38;;;;;;;15.30;11.00;;;;;;;0.52;100.00;102341.97;9957842;29;20058;-72
2021/03/02 05:04:40;;;;;;;15.52;10.32;;;;;;;0.50;100.00;102356.63;9964624;29;20063;-72
2021/03/02 05:09:42;;;;;;;12.45;9.50;;;;;;;0.55;100.00;102356.75;9987355;29;20076;-72
2021/03/02 05:14:46;;;;;;;15.73;10.52;;;;;;;0.38;100.00;102341.66;9972332;29;20430;-72
2021/03/02 05:19:49;;;;;;;;;;;;;;;0.31;100.00;102339.75;9987429;29;20070;-72
2021/03/02 05:24:52;;;;;;;14.32;10.27;;;;;;;0.16;100.00;102320.34;9972331;29;19924;-72
2021/03/02 05:29:55;;;;;;;13.63;9.85;;;;;;;0.04;100.00;102318.28;9971519;29;20489;-72
2021/03/02 05:35:00;;;;;;;12.33;9.47;;;;;;;0.26;100.00;102351.69;9987276;29;20069;-72
2021/03/02 05:40:03;;;;;;;11.98;9.48;;;;;;;0.37;100.00;102358.03;9971296;29;20472;-72
2021/03/02 05:45:08;;;;;;;13.70;9.10;;;;;;;0.47;100.00;102368.63;9971580;29;20480;-74
2021/03/02 05:50:10;;;;;;;12.85;9.13;;;;;;;0.44;100.00;102360.78;9954936;29;20130;-74
2021/03/02 05:55:15;;;;;;;14.32;11.15;;;;;;;0.70;100.00;102375.25;9986624;29;20440;-73
2021/03/02 06:00:18;;;;;;;14.98;10.10;;;;;;;0.23;100.00;102337.78;9986464;29;20077;-73
2021/03/02 06:05:22;;;;;;;12.23;9.52;;;;;;;-0.07;100.00;102309.34;9970051;29;20101;-73
2021/03/02 06:10:29;;;;;;;17.15;10.90;;;;;;;0.14;100.00;102347.91;9984712;29;20061;-73
2021/03/02 06:15:35;;;;;;;14.93;11.25;;;;;;;0.69;100.00;102399.44;9970154;29;20400;-73
2021/03/02 06:20:37;;;;;;;16.40;10.73;;;;;;;1.51;100.00;102448.09;9947755;29;20069;-73
2021/03/02 06:25:42;;;;;;;14.73;10.23;;;;;;;1.94;100.00;102486.28;9976089;29;20105;-73
2021/03/02 06:30:44;;;;;;;14.95;9.65;;;;;;;2.49;100.00;102513.41;9969650;29;20444;-73
2021/03/02 06:35:51;;;;;;;18.67;12.43;;;;;;;2.70;100.00;102498.19;9969628;29;20103;-73
2021/03/02 06:40:55;;;;;;;14.45;9.23;;;;;;;2.62;100.00;102477.25;9970718;29;20042;-73
2021/03/02 06:45:58;;;;;;;20.15;11.70;;;;;;;2.68;100.00;102479.06;9946722;29;20179;-73
2021/03/02 06:51:02;;;;;;;12.35;8.98;;;;;;;3.12;100.00;102502.41;9982230;29;20518;-73
2021/03/02 06:56:12;;;;;;;11.43;7.82;;;;;;;3.19;100.00;102470.41;9974683;29;20437;-73
2021/03/02 07:01:13;;;;;;;11.48;8.50;;;;;;;3.20;100.00;102461.72;9969280;29;20477;-73
2021/03/02 07:06:17;;;;;;;11.75;8.27;;;;;;;3.56;100.00;102443.19;9977865;29;20058;-73
2021/03/02 07:11:19;;;;;;;11.57;8.30;;;;;;;4.11;100.00;102486.47;10019363;29;20049;-75
2021/03/02 07:16:24;;;;;;;28.83;15.05;;;;;;;4.68;100.00;102481.06;10005350;29;20065;-73
2021/03/02 07:21:28;;;;;;;;;;;;;;;5.47;100.00;102517.44;10005992;29;20138;-74
2021/03/02 07:26:33;;;;;;;12.82;8.63;;;;;;;5.34;100.00;102457.25;9984660;29;19924;-73
2021/03/02 07:31:38;;;;;;;12.35;8.02;;;;;;;5.41;100.00;102450.31;9989672;29;20072;-72
2021/03/02 07:36:43;;;;;;;13.30;8.65;;;;;;;6.99;96.30;102552.19;10019832;29;20556;-71
2021/03/02 07:41:55;;;;;;;14.65;9.32;;;;;;;7.87;89.19;102545.16;10020325;29;20046;-71
2021/03/02 07:46:58;;;;;;;13.15;8.93;;;;;;;8.42;85.19;102536.28;9979043;29;20058;-70
2021/03/02 07:52:11;;;;;;;12.20;9.13;;;;;;;8.54;81.71;102479.28;9930026;29;20055;-72
2021/03/02 07:57:19;;;;;;;12.25;9.32;;;;;;;8.84;80.83;102493.13;9953469;29;20529;-71
2021/03/02 08:02:22;;;;;;;12.35;8.93;;;;;;;8.48;80.35;102431.19;9966834;29;20477;-72
2021/03/02 08:07:28;;;;;;;11.00;8.43;;;;;;;8.31;80.81;102405.91;9951350;29;20459;-71
2021/03/02 08:12:35;;;;;;;12.43;9.45;;;;;;;8.91;79.54;102434.38;9995344;29;20365;-72
2021/03/02 08:17:38;;;;;;;13.77;8.80;;;;;;;9.59;78.34;102467.94;10026629;29;20074;-72
2021/03/02 08:22:46;;;;;;;10.75;8.02;;;;;;;9.17;78.36;102421.88;10004747;29;20384;-74
2021/03/02 08:28:09;;;;;;;13.38;10.32;;;;;;;10.32;75.83;102482.03;9972356;29;20063;-71
2021/03/02 08:33:18;;;;;;;12.60;9.52;;;;;;;10.44;75.27;102479.22;9988258;29;20073;-72
2021/03/02 08:38:22;;;;;;;14.60;10.80;;;;;;;10.78;73.46;102459.41;9972988;29;20081;-72
2021/03/02 08:43:26;;;;;;;15.45;11.73;;;;;;;11.08;72.44;102459.78;9973305;29;20473;-72
2021/03/02 08:48:30;;;;;;;11.05;8.32;;;;;;;10.83;72.62;102423.28;9986569;29;20070;-72
2021/03/02 08:53:37;;;;;;;12.95;9.55;;;;;;;10.54;71.22;102359.63;9969909;29;20077;-72
2021/03/02 08:58:42;;;;;;;13.15;9.93;;;;;;;11.34;70.37;102426.78;10017133;29;20070;-74
2021/03/02 09:03:46;;;;;;;15.95;10.18;;;;;;;11.73;70.01;102455.97;9971439;29;20443;-75
2021/03/02 09:08:56;;;;;;;14.43;10.45;;;;;;;12.12;68.79;102481.63;9971246;29;20123;-75
2021/03/02 09:14:02;;;;;;;11.63;9.15;;;;;;;11.77;70.24;102442.72;9971425;29;20069;-75
2021/03/02 09:19:29;;;;;;;14.48;10.82;;;;;;;12.01;70.34;102435.19;9985506;29;20484;-73
2021/03/02 09:24:33;;;;;;;14.32;9.73;;;;;;;11.68;69.34;102378.63;9970415;29;20057;-73
2021/03/02 09:29:52;;;;;;;15.30;10.77;;;;;;;12.09;69.33;102428.84;9970004;29;20088;-73
2021/03/02 09:35:02;;;;;;;14.40;9.07;;;;;;;12.52;66.82;102414.66;9969001;29;20058;-73
2021/03/02 09:40:08;;;;;;;13.43;10.57;;;;;;;12.85;66.40;102455.31;9955752;29;20046;-74
2021/03/02 09:45:16;;;;;;;12.43;9.23;;;;;;;13.64;64.29;102446.19;9970524;29;20063;-73
2021/03/02 09:50:21;;;;;;;13.25;9.73;;;;;;;13.22;64.89;102442.09;9969207;29;20065;-73
2021/03/02 09:55:26;;;;;;;14.25;11.20;;;;;;;12.99;64.57;102400.28;9970058;29;20460;-73
2021/03/02 10:00:36;;;;;;;12.93;9.93;;;;;;;12.85;64.84;102386.53;9962784;29;20050;-73
2021/03/02 10:05:45;;;;;;;14.40;10.87;;;;;;;13.28;65.04;102437.50;9946566;29;20094;-73
2021/03/02 10:10:49;;;;;;;16.88;10.90;;;;;;;13.16;62.79;102352.22;9975891;29;20476;-75
2021/03/02 10:16:10;;;;;;;14.07;11.68;;;;;;;13.31;63.84;102406.56;10006672;29;20061;-74
2021/03/02 10:21:14;;;;;;;15.93;12.18;;;;;;;14.44;61.74;102405.00;9991335;29;20050;-74
2021/03/02 10:26:25;;;;;;;14.82;11.90;;;;;;;13.92;63.19;102421.59;9972709;29;20054;-74
2021/03/02 10:31:30;;;;;;;15.20;12.20;;;;;;;14.20;61.65;102401.31;9968611;29;20153;-73
2021/03/02 10:36:33;;;;;;;14.75;12.02;;;;;;;13.87;62.00;102355.50;9952969;29;20485;-72
2021/03/02 10:41:37;;;;;;;15.55;10.40;;;;;;;13.85;62.33;102344.06;9983670;29;20575;-73
2021/03/02 10:46:44;;;;;;;14.43;11.13;;;;;;;15.14;59.58;102419.50;9983388;29;20553;-74
2021/03/02 10:51:50;;;;;;;15.60;12.27;;;;;;;15.36;61.09;102461.22;9968259;29;20050;-74
2021/03/02 10:57:05;;;;;;;13.88;10.93;;;;;;;14.18;60.79;102312.13;9983087;29;20358;-74
2021/03/02 11:02:08;;;;;;;14.88;11.70;;;;;;;14.82;61.43;102398.44;9968099;29;20458;-74
2021/03/02 11:07:11;;;;;;;15.07;12.32;;;;;;;16.55;57.92;102463.03;9998261;29;20088;-74
2021/03/02 11:12:13;;;;;;;14.18;11.60;;;;;;;16.43;58.45;102458.16;10005249;29;20059;-74
2021/03/02 11:17:16;;;;;;;16.25;12.27;;;;;;;16.61;57.00;102383.84;10004459;29;20081;-74
2021/03/02 11:22:19;;;;;;;15.93;12.97;;;;;;;17.21;54.77;102415.94;10016483;29;20089;-74
2021/03/02 11:27:21;;;;;;;15.82;12.45;;;;;;;15.71;57.09;102295.25;9980404;29;20057;-74
2021/03/02 11:32:25;;;;;;;18.25;13.13;;;;;;;17.19;55.72;102413.34;10006119;29;20552;-72
2021/03/02 11:37:43;;;;;;;16.48;12.88;;;;;;;16.85;55.26;102331.38;9990609;29;20484;-75
2021/03/02 11:42:53;;;;;;;16.70;13.45;;;;;;;17.29;54.46;102352.53;9994380;29;20064;-73
2021/03/02 11:47:58;;;;;;;17.10;12.85;;;;;;;17.88;53.35;102384.50;10015698;29;20062;-74
2021/03/02 11:53:01;;;;;;;18.88;14.57;;;;;;;17.73;52.78;102300.78;9986646;29;20453;-73
2021/03/02 11:58:02;;;;;;;16.90;12.70;;;;;;;17.10;54.24;102258.41;9974019;29;20143;-73
2021/03/02 12:03:04;;;;;;;17.45;13.38;;;;;;;18.29;54.37;102398.56;9973864;29;20057;-74
2021/03/02 12:08:06;;;;;;;16.40;11.68;;;;;;;17.34;54.21;102270.59;9972918;29;20088;-72
2021/03/02 12:13:08;;;;;;;18.63;12.85;;;;;;;18.31;52.32;102318.44;9992036;29;20046;-72
2021/03/02 12:18:13;;;;;;;17.65;12.30;;;;;;;18.59;52.51;102334.81;10004602;29;20073;-72
2021/03/02 12:23:15;;;;;;;22.00;14.93;;;;;;;18.24;51.50;102261.00;9969385;29;20149;-72
2021/03/02 12:28:18;;;;;;;18.15;13.73;;;;;;;18.34;51.56;102302.25;10025450;29;20381;-72
2021/03/02 12:33:20;;;;;;;19.40;13.48;;;;;;;18.42;52.15;102289.41;9973044;29;20138;-71
2021/03/02 12:38:23;;;;;;;16.85;12.23;;;;;;;17.14;53.03;102148.16;9957308;29;20062;-72
2021/03/02 12:43:24;;;;;;;17.08;12.50;;;;;;;17.97;53.83;102279.22;9987792;29;20465;-71
2021/03/02 12:48:26;;;;;;;16.73;13.07;;;;;;;18.92;50.96;102270.81;9949589;29;20501;-71
2021/03/02 12:53:35;;;;;;;18.65;14.10;;;;;;;18.76;52.23;102296.59;9935956;29;20059;-71
2021/03/02 12:58:37;;;;;;;17.52;14.55;;;;;;;18.51;51.02;102209.72;9940446;29;20069;-71
2021/03/02 13:03:43;;;;;;;20.10;15.60;;;;;;;18.33;50.74;102208.00;9953638;29;20069;-71
2021/03/02 13:08:46;;;;;;;20.08;15.50;;;;;;;18.34;53.13;102270.25;9957304;29;20108;-71
2021/03/02 13:13:49;;;;;;;15.68;12.40;;;;;;;19.55;50.07;102290.59;9971216;29;20054;-72
2021/03/02 13:18:54;;;;;;;18.17;14.25;;;;;;;17.62;53.15;102195.59;9956527;29;20066;-71
2021/03/02 13:23:58;;;;;;;20.75;15.80;;;;;;;17.41;53.87;102176.13;9971237;29;20054;-71
2021/03/02 13:29:10;;;;;;;19.05;12.93;;;;;;;16.11;56.15;102088.03;9955588;29;20069;-71
2021/03/02 13:34:18;;;;;;;18.70;13.65;;;;;;;15.71;57.68;102102.16;9955749;29;20062;-72
2021/03/02 13:39:22;;;;;;;20.60;14.30;;;;;;;16.14;58.51;102210.22;9969900;29;20055;-72
2021/03/02 13:44:24;;;;;;;19.93;13.57;;;;;;;16.12;56.11;102150.91;10006730;29;20476;-71
2021/03/02 13:49:27;;;;;;;19.67;14.63;;;;;;;15.73;57.35;102141.97;10022457;29;20050;-71
2021/03/02 13:54:32;;;;;;;20.47;14.57;;;;;;;15.66;56.80;102111.22;10001965;29;20065;-72
2021/03/02 13:59:34;;;;;;;18.93;12.37;;;;;;;15.86;55.63;102105.97;9992508;29;20054;-72
2021/03/02 14:04:41;;;;;;;20.90;15.27;;;;;;;15.72;57.06;102141.09;10007460;29;20054;-73
2021/03/02 14:09:45;;;;;;;19.90;14.10;;;;;;;15.52;58.78;102128.56;10003787;29;20060;-73
2021/03/02 14:14:55;;;;;;;18.73;12.80;;;;;;;15.36;59.53;102132.78;9970164;29;20393;-72
2021/03/02 14:20:05;;;;;;;17.17;12.45;;;;;;;15.57;58.01;102145.22;9968843;29;20077;-72
2021/03/02 14:25:25;;;;;;;18.35;13.45;;;;;;;15.65;57.51;102141.41;9968970;29;20145;-73
2021/03/02 14:30:30;;;;;;;16.80;12.70;;;;;;;15.52;57.53;102120.59;9969045;29;20127;-72
2021/03/02 14:35:34;;;;;;;22.05;12.80;;;;;;;15.63;57.64;102124.66;9968962;29;20054;-72
2021/03/02 14:40:41;;;;;;;18.20;13.15;;;;;;;15.48;58.05;102126.13;9984447;29;20108;-72
2021/03/02 14:45:47;;;;;;;19.73;14.25;;;;;;;15.50;57.17;102111.81;9968737;29;20146;-71
2021/03/02 14:51:00;;;;;;;19.98;13.43;;;;;;;15.62;57.36;102123.78;9968236;29;20492;-72
2021/03/02 14:56:13;;;;;;;21.08;13.48;;;;;;;15.52;57.78;102114.44;9968000;29;20086;-72
2021/03/02 15:01:21;;;;;;;20.83;12.82;;;;;;;15.52;59.32;102130.38;9968709;29;20054;-72
2021/03/02 15:06:28;;;;;;;19.17;13.07;;;;;;;15.48;57.46;102089.75;9952556;29;20054;-72
2021/03/02 15:11:32;;;;;;;19.27;12.70;;;;;;;15.51;56.79;102088.78;9968786;29;20055;-71
2021/03/02 15:16:35;;;;;;;20.23;12.70;;;;;;;15.42;58.19;102105.09;9967974;29;20120;-71
2021/03/02 15:21:45;;;;;;;20.30;13.20;;;;;;;15.43;57.80;102089.09;9957163;29;20129;-72
2021/03/02 15:26:49;;;;;;;23.77;14.50;;;;;;;15.34;61.49;102131.09;9971531;29;21429;-72
2021/03/02 15:31:53;;;;;;;20.00;12.30;;;;;;;15.29;59.78;102102.09;9963383;29;20126;-72
2021/03/02 15:36:59;;;;;;;20.27;13.38;;;;;;;15.34;57.70;102081.50;9996344;29;20069;-73
2021/03/02 15:42:03;;;;;;;20.98;12.85;;;;;;;15.22;58.18;102084.66;9969226;29;20073;-72
2021/03/02 15:47:24;;;;;;;19.77;12.00;;;;;;;15.00;60.46;102079.31;9989093;29;20065;-73
2021/03/02 15:52:33;;;;;;;17.90;12.40;;;;;;;14.80;62.57;102085.44;9973439;29;20122;-72
2021/03/02 15:57:37;;;;;;;18.15;12.90;;;;;;;14.65;63.74;102083.31;9983493;29;20548;-73
2021/03/02 16:02:42;;;;;;;19.30;11.73;;;;;;;14.72;62.39;102099.91;9971486;29;20150;-72
2021/03/02 16:07:58;;;;;;;17.77;11.98;;;;;;;14.45;64.31;102092.97;9986664;29;20062;-72
2021/03/02 16:13:02;;;;;;;18.65;12.25;;;;;;;14.41;63.92;102092.19;9967915;29;20054;-73
2021/03/02 16:18:05;;;;;;;18.23;12.37;;;;;;;14.26;64.57;102082.97;9952393;29;20369;-73
2021/03/02 16:23:15;;;;;;;17.13;12.60;;;;;;;13.89;65.69;102072.78;9974340;29;20050;-73
2021/03/02 16:28:20;;;;;;;23.60;12.75;;;;;;;13.83;66.64;102085.38;9970105;29;20464;-72
2021/03/02 16:33:23;;;;;;;21.10;12.88;;;;;;;13.77;66.00;102078.53;9957431;29;20079;-72
2021/03/02 16:38:25;;;;;;;19.83;12.45;;;;;;;13.62;66.37;102084.34;9954688;29;20058;-72
2021/03/02 16:43:29;;;;;;;19.17;11.88;;;;;;;13.26;67.69;102057.28;9980554;29;20485;-72
2021/03/02 16:48:33;;;;;;;15.90;11.80;;;;;;;12.98;69.24;102067.81;9971790;29;20097;-72
2021/03/02 16:53:39;;;;;;;16.05;11.75;;;;;;;12.69;69.31;102052.88;9957777;29;20056;-72
2021/03/02 16:58:41;;;;;;;17.05;12.70;;;;;;;12.48;70.39;102061.41;9987303;29;20453;-72
2021/03/02 17:03:59;;;;;;;18.45;11.57;;;;;;;12.12;70.85;102045.69;9987050;29;20149;-72
2021/03/02 17:09:07;;;;;;;19.45;11.35;;;;;;;11.98;69.50;102046.97;9986345;29;20059;-72
2021/03/02 17:14:08;;;;;;;18.92;11.48;;;;;;;12.11;68.08;102077.44;9934886;29;20063;-73
2021/03/02 17:19:14;;;;;;;20.65;12.15;;;;;;;11.86;68.54;102049.94;9948687;29;20065;-73
2021/03/02 17:24:16;;;;;;;19.55;12.70;;;;;;;11.45;70.80;102043.06;9952084;29;20085;-73
2021/03/02 17:29:20;;;;;;;18.13;12.50;;;;;;;10.96;73.35;102023.97;9967067;29;20062;-72
2021/03/02 17:34:23;;;;;;;23.17;14.73;;;;;;;10.96;72.90;102066.16;9970216;29;20050;-73
2021/03/02 17:39:24;;;;;;;18.52;13.32;;;;;;;10.84;72.23;102060.31;9970206;29;20058;-73
2021/03/02 17:44:34;;;;;;;19.75;12.57;;;;;;;10.61;72.90;102055.53;9948074;29;20078;-73
2021/03/02 17:49:38;;;;;;;18.95;13.57;;;;;;;10.16;75.15;102025.69;9932692;29;20069;-73
2021/03/02 17:54:43;;;;;;;19.95;11.75;;;;;;;10.09;76.44;102063.59;9954417;29;20065;-73
2021/03/02 17:59:54;;;;;;;23.25;11.95;;;;;;;10.03;76.83;102059.31;9969900;29;20145;-72
2021/03/02 18:04:57;;;;;;;19.00;11.82;;;;;;;10.03;76.53;102082.13;9968913;29;20138;-73
2021/03/02 18:10:00;;;;;;;21.25;12.82;;;;;;;9.87;76.76;102063.97;9968651;29;20142;-73
2021/03/02 18:15:03;;;;;;;23.20;15.20;;;;;;;9.68;77.83;102061.69;9969359;29;20087;-72
2021/03/02 18:20:06;;;;;;;20.98;12.82;;;;;;;9.65;78.65;102086.28;9966845;29;20069;-73
2021/03/02 18:25:09;;;;;;;21.75;13.02;;;;;;;9.66;78.70;102095.94;9981171;29;20076;-73
2021/03/02 18:30:12;;;;;;;20.42;12.77;;;;;;;9.60;78.37;102092.53;9969385;29;20050;-72
2021/03/02 18:35:13;;;;;;;21.50;13.40;;;;;;;9.72;77.74;102110.75;9983922;29;20137;-73
2021/03/02 18:40:37;;;;;;;21.83;14.13;;;;;;;9.65;77.46;102103.84;9970933;29;20150;-73
2021/03/02 18:45:41;;;;;;;19.97;13.47;;;;;;;9.51;77.91;102097.06;9953510;29;20165;-73
2021/03/02 18:50:45;;;;;;;19.58;12.65;;;;;;;9.25;78.99;102083.44;9953997;29;20827;-73
2021/03/02 18:55:50;;;;;;;18.63;12.23;;;;;;;9.31;79.52;102109.63;9952536;29;20068;-73
2021/03/02 19:00:53;;;;;;;19.92;12.73;;;;;;;9.46;78.01;102121.69;9984379;29;20154;-73
2021/03/02 19:05:59;;;;;;;21.42;12.90;;;;;;;9.75;76.19;102150.16;9983004;29;20062;-73
2021/03/02 19:11:02;;;;;;;24.23;14.82;;;;;;;9.94;74.34;102153.38;9966696;29;20491;-73
2021/03/02 19:16:05;;;;;;;20.08;12.65;;;;;;;10.13;73.41;102167.94;9967387;29;20065;-73
2021/03/02 19:21:11;;;;;;;21.35;13.73;;;;;;;10.16;72.38;102154.75;9968114;29;20050;-73
2021/03/02 19:26:15;;;;;;;25.83;19.85;;;;;;;10.32;71.78;102161.50;9952279;29;20054;-73
2021/03/02 19:31:19;;;;;;;26.50;15.75;;;;;;;10.12;72.25;102129.38;9982644;29;20078;-73
2021/03/02 19:36:26;;;;;;;21.27;16.47;;;;;;;10.14;72.26;102140.72;9967762;29;20051;-73
2021/03/02 19:41:32;;;;;;;30.40;19.00;;;;;;;10.01;72.45;102126.06;9965907;29;20472;-73
2021/03/02 19:46:35;;;;;;;22.60;15.70;;;;;;;10.03;71.96;102133.03;9966857;29;20050;-73
2021/03/02 19:51:37;;;;;;;19.48;14.77;;;;;;;9.70;72.79;102097.63;9982403;29;20481;-73
2021/03/02 19:56:42;;;;;;;28.17;17.63;;;;;;;9.42;74.67;102075.28;9980948;29;20073;-73
2021/03/02 20:01:44;;;;;;;23.20;16.25;;;;;;;9.40;75.53;102087.59;9967542;29;20115;-73
2021/03/02 20:06:47;;;;;;;20.75;13.65;;;;;;;9.00;77.76;102055.78;9950744;29;20050;-72
2021/03/02 20:11:49;;;;;;;21.40;12.63;;;;;;;8.76;79.83;102056.97;9957089;29;20216;-73
2021/03/02 20:16:51;;;;;;;21.95;13.93;;;;;;;8.51;82.05;102072.19;9972837;29;20507;-73
2021/03/02 20:21:52;;;;;;;16.48;11.30;;;;;;;9.23;80.12;102163.22;9987303;29;20054;-73
2021/03/02 20:26:54;;;;;;;23.85;12.10;;;;;;;9.39;78.07;102159.50;9957646;29;20129;-73
2021/03/02 20:31:57;;;;;;;20.23;12.32;;;;;;;9.10;78.57;102128.38;9973483;29;20055;-73
2021/03/02 20:37:01;;;;;;;23.15;12.82;;;;;;;8.71;80.18;102091.19;9988775;29;20532;-73
2021/03/02 20:42:03;;;;;;;22.73;14.52;;;;;;;8.47;82.15;102107.25;9986977;29;20154;-73
2021/03/02 20:47:08;;;;;;;21.67;13.68;;;;;;;7.63;85.81;102044.22;9956872;29;20115;-73
2021/03/02 20:52:11;;;;;;;18.60;13.18;;;;;;;7.05;90.64;102038.56;9974426;29;20737;-73
2021/03/02 20:57:14;;;;;;;;;;;;;;;6.68;94.86;102056.28;10011152;29;20065;-73
2021/03/02 21:02:17;;;;;;;20.15;14.50;;;;;;;6.65;97.56;102091.19;9971954;29;19960;-73
2021/03/02 21:07:19;;;;;;;21.05;14.80;;;;;;;6.95;98.56;102139.06;9970909;29;20072;-73
2021/03/02 21:12:24;;;;;;;21.05;14.88;;;;;;;7.53;96.51;102200.78;9983179;29;20070;-73
2021/03/02 21:17:28;;;;;;;22.90;14.75;;;;;;;7.00;96.92;102138.19;9948445;29;20059;-73
2021/03/02 21:22:38;;;;;;;20.98;14.10;;;;;;;6.69;99.83;102139.19;9938846;29;20068;-73
2021/03/02 21:27:43;;;;;;;19.33;14.02;;;;;;;6.68;100.00;102147.94;9985807;29;20050;-73
2021/03/02 21:32:47;;;;;;;20.38;12.88;;;;;;;6.77;100.00;102181.94;9970601;29;20065;-73
2021/03/02 21:37:49;;;;;;;21.38;14.45;;;;;;;6.93;100.00;102194.13;9970421;29;20489;-73
2021/03/02 21:43:04;;;;;;;21.25;13.93;;;;;;;7.07;98.86;102196.66;9982592;29;20051;-73
2021/03/02 21:48:07;;;;;;;23.33;14.20;;;;;;;6.94;97.60;102182.75;9984893;29;20557;-73
2021/03/02 21:53:12;;;;;;;20.70;14.38;;;;;;;7.03;96.96;102192.34;9970181;29;20058;-73
2021/03/02 21:58:19;;;;;;;22.40;13.95;;;;;;;6.69;97.42;102147.06;9963186;29;20064;-73
2021/03/02 22:03:32;;;;;;;22.17;15.57;;;;;;;6.29;100.00;102130.56;9932441;29;20058;-73
2021/03/02 22:08:34;;;;;;;22.77;16.85;;;;;;;6.11;100.00;102128.00;9946301;29;20115;-73
2021/03/02 22:13:37;;;;;;;24.20;16.42;;;;;;;5.96;100.00;102136.72;9977561;29;20115;-73
2021/03/02 22:18:41;;;;;;;23.40;17.80;;;;;;;5.94;100.00;102143.72;9984169;29;20400;-73
2021/03/02 22:23:44;;;;;;;21.98;14.68;;;;;;;5.88;100.00;102152.44;9968123;29;20054;-73
2021/03/02 22:28:49;;;;;;;22.92;16.58;;;;;;;6.11;100.00;102173.34;9983954;29;20082;-73
2021/03/02 22:33:52;;;;;;;21.13;14.80;;;;;;;6.50;100.00;102198.59;9968705;29;20061;-73
2021/03/02 22:38:55;;;;;;;22.92;16.85;;;;;;;6.38;100.00;102175.03;9953627;29;20311;-73
2021/03/02 22:44:00;;;;;;;;;;;;;;;6.74;100.00;102214.25;9969170;29;20050;-73
2021/03/02 22:49:01;;;;;;;31.60;18.35;;;;;;;7.20;99.76;102219.31;9967997;29;19943;-73
2021/03/02 22:54:06;;;;;;;20.38;14.40;;;;;;;7.13;97.47;102197.50;9968029;29;20538;-73
2021/03/02 22:59:07;;;;;;;;;;;;;;;6.72;97.70;102155.75;9968708;29;20055;-73
2021/03/02 23:04:13;;;;;;;21.35;15.60;;;;;;;6.64;98.88;102160.16;9983884;29;20004;-72
2021/03/02 23:09:14;;;;;;;23.30;14.65;;;;;;;6.29;99.75;102126.22;9982820;29;20078;-72
2021/03/02 23:14:17;;;;;;;23.55;15.93;;;;;;;6.53;100.00;102182.88;9969237;29;20065;-73